sensor_id;sensor_type;location;lat;lon;timestamp;pressure;altitude;pressure_sealevel;temperature;humidity
57948;BME280;43754;56.992;24.292;2023-05-29T00:00:31;101708.56;;;9.85;90.68
57948;BME280;43754;56.992;24.292;2023-05-29T00:03:05;101715.22;;;9.81;91.78
57948;BME280;43754;56.992;24.292;2023-05-29T00:05:37;101713.69;;;9.79;91.45
57948;BME280;43754;56.992;24.292;2023-05-29T00:08:09;101704.41;;;9.73;91.85
57948;BME280;43754;56.992;24.292;2023-05-29T00:10:41;101708.38;;;9.69;91.75
57948;BME280;43754;56.992;24.292;2023-05-29T00:13:14;101706.16;;;9.64;92.15
57948;BME280;43754;56.992;24.292;2023-05-29T00:15:46;101712.97;;;9.59;92.61
57948;BME280;43754;56.992;24.292;2023-05-29T00:18:20;101708.59;;;9.58;92.78
57948;BME280;43754;56.992;24.292;2023-05-29T00:20:52;101708.75;;;9.56;92.98
57948;BME280;43754;56.992;24.292;2023-05-29T00:23:25;101707.22;;;9.54;93.26
57948;BME280;43754;56.992;24.292;2023-05-29T00:25:57;101707.53;;;9.51;92.48
57948;BME280;43754;56.992;24.292;2023-05-29T00:28:29;101717.84;;;9.46;93.66
57948;BME280;43754;56.992;24.292;2023-05-29T00:31:01;101728.84;;;9.43;93.88
57948;BME280;43754;56.992;24.292;2023-05-29T00:33:35;101718.41;;;9.40;95.05
57948;BME280;43754;56.992;24.292;2023-05-29T00:36:08;101727.03;;;9.34;94.53
57948;BME280;43754;56.992;24.292;2023-05-29T00:38:40;101724.94;;;9.28;95.34
57948;BME280;43754;56.992;24.292;2023-05-29T00:41:13;101726.22;;;9.23;95.57
57948;BME280;43754;56.992;24.292;2023-05-29T00:43:46;101731.47;;;9.15;95.17
57948;BME280;43754;56.992;24.292;2023-05-29T00:46:18;101727.56;;;9.10;96.16
57948;BME280;43754;56.992;24.292;2023-05-29T00:48:54;101732.50;;;9.05;96.91
57948;BME280;43754;56.992;24.292;2023-05-29T00:51:27;101733.94;;;8.99;96.88
57948;BME280;43754;56.992;24.292;2023-05-29T00:53:59;101734.22;;;8.96;96.40
57948;BME280;43754;56.992;24.292;2023-05-29T00:56:31;101723.13;;;8.91;97.23
57948;BME280;43754;56.992;24.292;2023-05-29T00:59:05;101735.94;;;8.88;97.31
57948;BME280;43754;56.992;24.292;2023-05-29T01:01:38;101727.50;;;8.83;97.34
57948;BME280;43754;56.992;24.292;2023-05-29T01:04:12;101733.28;;;8.78;97.54
57948;BME280;43754;56.992;24.292;2023-05-29T01:06:46;101733.88;;;8.72;98.43
57948;BME280;43754;56.992;24.292;2023-05-29T01:09:18;101730.63;;;8.68;98.59
57948;BME280;43754;56.992;24.292;2023-05-29T01:11:58;101730.22;;;8.63;99.35
57948;BME280;43754;56.992;24.292;2023-05-29T01:14:38;101735.16;;;8.58;99.13
57948;BME280;43754;56.992;24.292;2023-05-29T01:17:19;101737.53;;;8.52;98.47
57948;BME280;43754;56.992;24.292;2023-05-29T01:20:03;101742.47;;;8.47;100.00
57948;BME280;43754;56.992;24.292;2023-05-29T01:23:01;101741.75;;;8.45;100.00
57948;BME280;43754;56.992;24.292;2023-05-29T01:25:58;101741.22;;;8.41;100.00
57948;BME280;43754;56.992;24.292;2023-05-29T01:28:40;101743.16;;;8.39;100.00
57948;BME280;43754;56.992;24.292;2023-05-29T01:31:25;101744.31;;;8.37;100.00
57948;BME280;43754;56.992;24.292;2023-05-29T01:33:58;101753.44;;;8.34;100.00
57948;BME280;43754;56.992;24.292;2023-05-29T01:36:31;101749.47;;;8.28;99.99
57948;BME280;43754;56.992;24.292;2023-05-29T01:39:04;101743.56;;;8.25;100.00
57948;BME280;43754;56.992;24.292;2023-05-29T01:41:37;101743.00;;;8.21;99.99
57948;BME280;43754;56.992;24.292;2023-05-29T01:44:12;101740.59;;;8.18;100.00
57948;BME280;43754;56.992;24.292;2023-05-29T01:46:45;101742.59;;;8.16;100.00
57948;BME280;43754;56.992;24.292;2023-05-29T01:49:18;101745.38;;;8.15;100.00
57948;BME280;43754;56.992;24.292;2023-05-29T01:51:50;101741.47;;;8.09;100.00
57948;BME280;43754;56.992;24.292;2023-05-29T01:54:22;101759.16;;;8.10;100.00
57948;BME280;43754;56.992;24.292;2023-05-29T01:56:55;101748.75;;;8.07;100.00
57948;BME280;43754;56.992;24.292;2023-05-29T01:59:29;101736.38;;;8.06;100.00
57948;BME280;43754;56.992;24.292;2023-05-29T02:02:05;101739.22;;;8.05;100.00
57948;BME280;43754;56.992;24.292;2023-05-29T02:04:38;101738.19;;;8.06;100.00
57948;BME280;43754;56.992;24.292;2023-05-29T02:07:10;101744.38;;;8.06;100.00
57948;BME280;43754;56.992;24.292;2023-05-29T02:09:43;101741.88;;;8.05;100.00
57948;BME280;43754;56.992;24.292;2023-05-29T02:12:16;101743.53;;;8.06;100.00
57948;BME280;43754;56.992;24.292;2023-05-29T02:14:49;101744.38;;;8.06;100.00
57948;BME280;43754;56.992;24.292;2023-05-29T02:17:21;101745.41;;;8.05;100.00
57948;BME280;43754;56.992;24.292;2023-05-29T02:19:53;101738.38;;;8.04;100.00
57948;BME280;43754;56.992;24.292;2023-05-29T02:22:25;101730.06;;;8.07;100.00
57948;BME280;43754;56.992;24.292;2023-05-29T02:24:57;101732.31;;;8.12;100.00
57948;BME280;43754;56.992;24.292;2023-05-29T02:27:30;101727.41;;;8.17;100.00
57948;BME280;43754;56.992;24.292;2023-05-29T02:30:05;101725.97;;;8.22;100.00
57948;BME280;43754;56.992;24.292;2023-05-29T02:32:37;101726.31;;;8.29;100.00
57948;BME280;43754;56.992;24.292;2023-05-29T02:35:09;101725.91;;;8.34;100.00
57948;BME280;43754;56.992;24.292;2023-05-29T02:37:42;101735.88;;;8.31;100.00
57948;BME280;43754;56.992;24.292;2023-05-29T02:40:14;101724.75;;;8.36;100.00
57948;BME280;43754;56.992;24.292;2023-05-29T02:42:46;101725.19;;;8.41;100.00
57948;BME280;43754;56.992;24.292;2023-05-29T02:45:20;101722.94;;;8.46;100.00
57948;BME280;43754;56.992;24.292;2023-05-29T02:47:52;101729.09;;;8.56;100.00
57948;BME280;43754;56.992;24.292;2023-05-29T02:50:24;101720.22;;;8.65;100.00
57948;BME280;43754;56.992;24.292;2023-05-29T02:52:56;101725.69;;;8.73;100.00
57948;BME280;43754;56.992;24.292;2023-05-29T02:55:29;101724.16;;;8.81;100.00
57948;BME280;43754;56.992;24.292;2023-05-29T02:58:04;101726.34;;;8.85;100.00
57948;BME280;43754;56.992;24.292;2023-05-29T03:00:37;101725.22;;;8.97;100.00
57948;BME280;43754;56.992;24.292;2023-05-29T03:03:09;101731.22;;;9.09;100.00
57948;BME280;43754;56.992;24.292;2023-05-29T03:05:43;101727.09;;;9.24;100.00
57948;BME280;43754;56.992;24.292;2023-05-29T03:08:16;101718.72;;;9.37;100.00
57948;BME280;43754;56.992;24.292;2023-05-29T03:10:49;101721.75;;;9.51;100.00
57948;BME280;43754;56.992;24.292;2023-05-29T03:13:25;101720.38;;;9.65;100.00
57948;BME280;43754;56.992;24.292;2023-05-29T03:16:07;101722.16;;;9.74;99.22
57948;BME280;43754;56.992;24.292;2023-05-29T03:18:41;101726.63;;;9.83;98.60
57948;BME280;43754;56.992;24.292;2023-05-29T03:21:14;101720.38;;;9.92;97.96
57948;BME280;43754;56.992;24.292;2023-05-29T03:23:46;101719.81;;;10.06;96.22
57948;BME280;43754;56.992;24.292;2023-05-29T03:26:18;101716.34;;;10.06;95.71
57948;BME280;43754;56.992;24.292;2023-05-29T03:28:52;101715.16;;;10.08;95.34
57948;BME280;43754;56.992;24.292;2023-05-29T03:31:26;101717.53;;;10.11;95.56
57948;BME280;43754;56.992;24.292;2023-05-29T03:33:59;101723.84;;;10.20;96.09
57948;BME280;43754;56.992;24.292;2023-05-29T03:36:39;101722.31;;;10.35;95.49
57948;BME280;43754;56.992;24.292;2023-05-29T03:39:12;101724.28;;;11.02;93.72
57948;BME280;43754;56.992;24.292;2023-05-29T03:41:44;101719.06;;;12.43;87.07
57948;BME280;43754;56.992;24.292;2023-05-29T03:44:16;101716.34;;;13.47;81.49
57948;BME280;43754;56.992;24.292;2023-05-29T03:46:51;101710.75;;;14.10;76.40
57948;BME280;43754;56.992;24.292;2023-05-29T03:49:23;101717.47;;;14.59;74.02
57948;BME280;43754;56.992;24.292;2023-05-29T03:51:55;101713.44;;;14.93;72.39
57948;BME280;43754;56.992;24.292;2023-05-29T03:54:28;101719.88;;;15.36;69.86
57948;BME280;43754;56.992;24.292;2023-05-29T03:57:00;101718.38;;;15.62;68.18
57948;BME280;43754;56.992;24.292;2023-05-29T03:59:33;101710.53;;;16.03;66.55
57948;BME280;43754;56.992;24.292;2023-05-29T04:02:07;101713.00;;;16.20;65.41
57948;BME280;43754;56.992;24.292;2023-05-29T04:04:40;101712.47;;;16.52;64.82
57948;BME280;43754;56.992;24.292;2023-05-29T04:07:12;101702.56;;;16.59;64.38
57948;BME280;43754;56.992;24.292;2023-05-29T04:09:44;101707.09;;;16.80;63.29
57948;BME280;43754;56.992;24.292;2023-05-29T04:12:16;101698.66;;;16.96;63.14
57948;BME280;43754;56.992;24.292;2023-05-29T04:14:48;101697.47;;;17.05;62.69
57948;BME280;43754;56.992;24.292;2023-05-29T04:17:21;101697.63;;;17.31;60.75
57948;BME280;43754;56.992;24.292;2023-05-29T04:19:53;101698.56;;;17.52;60.52
57948;BME280;43754;56.992;24.292;2023-05-29T04:22:26;101700.75;;;17.69;59.81
57948;BME280;43754;56.992;24.292;2023-05-29T04:24:58;101697.25;;;17.88;59.54
57948;BME280;43754;56.992;24.292;2023-05-29T04:27:30;101698.75;;;18.04;57.91
57948;BME280;43754;56.992;24.292;2023-05-29T04:30:06;101696.25;;;18.03;57.67
57948;BME280;43754;56.992;24.292;2023-05-29T04:32:44;101697.72;;;18.25;56.57
57948;BME280;43754;56.992;24.292;2023-05-29T04:35:17;101709.66;;;18.44;56.30
57948;BME280;43754;56.992;24.292;2023-05-29T04:37:58;101710.69;;;18.43;55.91
57948;BME280;43754;56.992;24.292;2023-05-29T04:40:34;101716.94;;;18.30;55.91
57948;BME280;43754;56.992;24.292;2023-05-29T04:43:08;101709.47;;;18.45;56.23
57948;BME280;43754;56.992;24.292;2023-05-29T04:46:04;101711.16;;;18.79;54.86
57948;BME280;43754;56.992;24.292;2023-05-29T04:48:40;101707.16;;;18.49;54.58
57948;BME280;43754;56.992;24.292;2023-05-29T04:51:13;101712.59;;;18.88;55.51
57948;BME280;43754;56.992;24.292;2023-05-29T04:53:46;101716.16;;;18.95;54.48
57948;BME280;43754;56.992;24.292;2023-05-29T04:56:18;101711.69;;;19.27;54.03
57948;BME280;43754;56.992;24.292;2023-05-29T04:58:51;101709.78;;;19.41;52.92
57948;BME280;43754;56.992;24.292;2023-05-29T05:01:24;101709.69;;;19.67;52.85
57948;BME280;43754;56.992;24.292;2023-05-29T05:03:59;101712.66;;;20.03;52.00
57948;BME280;43754;56.992;24.292;2023-05-29T05:06:31;101708.06;;;19.97;51.16
57948;BME280;43754;56.992;24.292;2023-05-29T05:09:03;101709.97;;;19.97;51.45
57948;BME280;43754;56.992;24.292;2023-05-29T05:11:35;101710.63;;;19.92;50.76
57948;BME280;43754;56.992;24.292;2023-05-29T05:14:09;101708.16;;;19.84;50.93
57948;BME280;43754;56.992;24.292;2023-05-29T05:16:41;101707.63;;;20.00;51.50
57948;BME280;43754;56.992;24.292;2023-05-29T05:19:16;101711.94;;;20.14;49.71
57948;BME280;43754;56.992;24.292;2023-05-29T05:21:48;101710.47;;;20.18;51.19
57948;BME280;43754;56.992;24.292;2023-05-29T05:24:26;101709.41;;;20.51;49.79
57948;BME280;43754;56.992;24.292;2023-05-29T05:26:58;101705.06;;;20.43;49.06
57948;BME280;43754;56.992;24.292;2023-05-29T05:29:30;101718.97;;;20.35;49.89
57948;BME280;43754;56.992;24.292;2023-05-29T05:32:03;101706.09;;;20.92;49.29
57948;BME280;43754;56.992;24.292;2023-05-29T05:34:37;101708.91;;;21.28;47.61
57948;BME280;43754;56.992;24.292;2023-05-29T05:37:10;101708.53;;;21.25;47.69
57948;BME280;43754;56.992;24.292;2023-05-29T05:39:45;101714.13;;;21.30;47.34
57948;BME280;43754;56.992;24.292;2023-05-29T05:42:18;101716.72;;;21.43;47.40
57948;BME280;43754;56.992;24.292;2023-05-29T05:45:04;101712.06;;;21.25;46.78
57948;BME280;43754;56.992;24.292;2023-05-29T05:47:37;101709.28;;;21.32;47.41
57948;BME280;43754;56.992;24.292;2023-05-29T05:50:11;101703.84;;;20.89;48.02
57948;BME280;43754;56.992;24.292;2023-05-29T05:52:43;101704.66;;;20.89;48.40
57948;BME280;43754;56.992;24.292;2023-05-29T05:55:15;101705.34;;;20.85;47.90
57948;BME280;43754;56.992;24.292;2023-05-29T05:57:48;101701.09;;;20.89;48.40
57948;BME280;43754;56.992;24.292;2023-05-29T06:00:20;101704.97;;;21.24;48.62
57948;BME280;43754;56.992;24.292;2023-05-29T06:02:52;101701.03;;;21.38;47.52
57948;BME280;43754;56.992;24.292;2023-05-29T06:05:39;101716.28;;;21.03;48.55
57948;BME280;43754;56.992;24.292;2023-05-29T06:08:12;101715.25;;;21.22;47.97
57948;BME280;43754;56.992;24.292;2023-05-29T06:10:45;101720.34;;;21.55;47.12
57948;BME280;43754;56.992;24.292;2023-05-29T06:13:17;101714.69;;;21.20;47.47
57948;BME280;43754;56.992;24.292;2023-05-29T06:15:56;101718.28;;;21.14;47.86
57948;BME280;43754;56.992;24.292;2023-05-29T06:18:28;101712.38;;;21.17;47.45
57948;BME280;43754;56.992;24.292;2023-05-29T06:21:02;101725.19;;;21.35;47.17
57948;BME280;43754;56.992;24.292;2023-05-29T06:23:35;101727.41;;;21.44;47.39
57948;BME280;43754;56.992;24.292;2023-05-29T06:26:08;101738.31;;;21.44;47.39
57948;BME280;43754;56.992;24.292;2023-05-29T06:28:40;101739.13;;;21.27;47.93
57948;BME280;43754;56.992;24.292;2023-05-29T06:31:12;101739.13;;;21.27;47.83
57948;BME280;43754;56.992;24.292;2023-05-29T06:33:45;101739.88;;;21.34;48.16
57948;BME280;43754;56.992;24.292;2023-05-29T06:36:18;101753.75;;;21.50;47.41
57948;BME280;43754;56.992;24.292;2023-05-29T06:38:50;101747.09;;;21.83;47.18
57948;BME280;43754;56.992;24.292;2023-05-29T06:41:23;101750.81;;;21.52;47.21
57948;BME280;43754;56.992;24.292;2023-05-29T06:43:55;101745.47;;;21.75;47.44
57948;BME280;43754;56.992;24.292;2023-05-29T06:46:27;101750.47;;;21.96;47.64
57948;BME280;43754;56.992;24.292;2023-05-29T06:48:59;101748.13;;;22.30;46.71
57948;BME280;43754;56.992;24.292;2023-05-29T06:51:34;101755.97;;;22.38;46.30
57948;BME280;43754;56.992;24.292;2023-05-29T06:54:27;101760.28;;;22.04;47.14
57948;BME280;43754;56.992;24.292;2023-05-29T06:57:00;101760.66;;;22.08;46.86
57948;BME280;43754;56.992;24.292;2023-05-29T06:59:42;101757.16;;;22.30;46.84
57948;BME280;43754;56.992;24.292;2023-05-29T07:02:14;101759.69;;;22.43;46.67
57948;BME280;43754;56.992;24.292;2023-05-29T07:04:49;101751.00;;;22.46;46.83
57948;BME280;43754;56.992;24.292;2023-05-29T07:07:23;101753.16;;;22.74;46.02
57948;BME280;43754;56.992;24.292;2023-05-29T07:09:55;101755.94;;;22.68;45.71
57948;BME280;43754;56.992;24.292;2023-05-29T07:12:27;101757.94;;;22.49;45.84
57948;BME280;43754;56.992;24.292;2023-05-29T07:14:59;101754.16;;;22.62;45.02
57948;BME280;43754;56.992;24.292;2023-05-29T07:17:32;101760.19;;;22.52;43.85
57948;BME280;43754;56.992;24.292;2023-05-29T07:20:15;101763.97;;;22.10;45.93
57948;BME280;43754;56.992;24.292;2023-05-29T07:22:49;101755.44;;;22.18;45.33
57948;BME280;43754;56.992;24.292;2023-05-29T07:25:21;101762.41;;;22.32;45.15
57948;BME280;43754;56.992;24.292;2023-05-29T07:27:53;101760.38;;;22.39;45.33
57948;BME280;43754;56.992;24.292;2023-05-29T07:30:25;101754.28;;;22.25;45.17
57948;BME280;43754;56.992;24.292;2023-05-29T07:32:58;101764.31;;;22.13;44.50
57948;BME280;43754;56.992;24.292;2023-05-29T07:35:30;101758.59;;;22.33;44.83
57948;BME280;43754;56.992;24.292;2023-05-29T07:38:09;101752.31;;;22.32;44.26
57948;BME280;43754;56.992;24.292;2023-05-29T07:40:42;101762.56;;;21.71;45.25
57948;BME280;43754;56.992;24.292;2023-05-29T07:43:17;101756.50;;;21.69;45.05
57948;BME280;43754;56.992;24.292;2023-05-29T07:45:54;101760.22;;;21.56;45.52
57948;BME280;43754;56.992;24.292;2023-05-29T07:48:27;101766.47;;;21.38;45.46
57948;BME280;43754;56.992;24.292;2023-05-29T07:51:00;101759.38;;;21.55;45.98
57948;BME280;43754;56.992;24.292;2023-05-29T07:53:38;101762.50;;;21.95;45.10
57948;BME280;43754;56.992;24.292;2023-05-29T07:56:11;101755.72;;;22.28;45.23
57948;BME280;43754;56.992;24.292;2023-05-29T07:58:43;101752.22;;;22.51;45.45
57948;BME280;43754;56.992;24.292;2023-05-29T08:01:15;101760.66;;;22.49;44.89
57948;BME280;43754;56.992;24.292;2023-05-29T08:03:47;101752.03;;;22.22;46.27
57948;BME280;43754;56.992;24.292;2023-05-29T08:06:33;101753.47;;;21.95;47.22
57948;BME280;43754;56.992;24.292;2023-05-29T08:09:08;101762.16;;;22.04;47.13
57948;BME280;43754;56.992;24.292;2023-05-29T08:11:41;101758.38;;;21.86;46.92
57948;BME280;43754;56.992;24.292;2023-05-29T08:14:13;101766.19;;;21.28;48.71
57948;BME280;43754;56.992;24.292;2023-05-29T08:16:47;101767.47;;;21.44;48.41
57948;BME280;43754;56.992;24.292;2023-05-29T08:19:19;101769.91;;;21.52;49.04
57948;BME280;43754;56.992;24.292;2023-05-29T08:21:51;101776.59;;;21.74;49.38
57948;BME280;43754;56.992;24.292;2023-05-29T08:24:25;101774.03;;;22.09;48.93
57948;BME280;43754;56.992;24.292;2023-05-29T08:26:57;101774.72;;;22.05;47.97
57948;BME280;43754;56.992;24.292;2023-05-29T08:29:29;101770.03;;;21.75;47.87
57948;BME280;43754;56.992;24.292;2023-05-29T08:32:02;101776.72;;;21.97;47.25
57948;BME280;43754;56.992;24.292;2023-05-29T08:34:35;101773.41;;;22.25;46.02
57948;BME280;43754;56.992;24.292;2023-05-29T08:37:07;101771.84;;;22.59;46.67
57948;BME280;43754;56.992;24.292;2023-05-29T08:39:40;101770.38;;;22.86;45.89
57948;BME280;43754;56.992;24.292;2023-05-29T08:42:13;101769.56;;;22.86;45.76
57948;BME280;43754;56.992;24.292;2023-05-29T08:44:51;101773.81;;;22.82;44.69
57948;BME280;43754;56.992;24.292;2023-05-29T08:47:27;101775.19;;;22.61;45.12
57948;BME280;43754;56.992;24.292;2023-05-29T08:50:01;101777.56;;;22.58;45.34
57948;BME280;43754;56.992;24.292;2023-05-29T08:52:35;101768.50;;;22.87;45.07
57948;BME280;43754;56.992;24.292;2023-05-29T08:55:11;101776.31;;;23.30;43.70
57948;BME280;43754;56.992;24.292;2023-05-29T08:57:43;101775.88;;;23.45;43.43
57948;BME280;43754;56.992;24.292;2023-05-29T09:00:17;101770.84;;;23.30;43.74
57948;BME280;43754;56.992;24.292;2023-05-29T09:02:50;101764.31;;;22.96;44.38
57948;BME280;43754;56.992;24.292;2023-05-29T09:05:25;101782.25;;;22.39;45.19
57948;BME280;43754;56.992;24.292;2023-05-29T09:08:01;101781.53;;;22.85;44.24
57948;BME280;43754;56.992;24.292;2023-05-29T09:10:37;101774.78;;;23.22;44.11
57948;BME280;43754;56.992;24.292;2023-05-29T09:13:24;101772.88;;;23.69;43.02
57948;BME280;43754;56.992;24.292;2023-05-29T09:15:57;101773.16;;;23.96;42.28
57948;BME280;43754;56.992;24.292;2023-05-29T09:18:30;101772.59;;;24.11;41.83
57948;BME280;43754;56.992;24.292;2023-05-29T09:21:06;101774.75;;;24.20;42.61
57948;BME280;43754;56.992;24.292;2023-05-29T09:23:40;101778.44;;;24.14;41.91
57948;BME280;43754;56.992;24.292;2023-05-29T09:26:15;101769.03;;;24.10;41.79
57948;BME280;43754;56.992;24.292;2023-05-29T09:28:47;101772.88;;;23.98;40.90
57948;BME280;43754;56.992;24.292;2023-05-29T09:31:19;101771.31;;;23.73;41.37
57948;BME280;43754;56.992;24.292;2023-05-29T09:33:53;101760.25;;;24.08;41.16
57948;BME280;43754;56.992;24.292;2023-05-29T09:36:25;101767.47;;;24.14;39.16
57948;BME280;43754;56.992;24.292;2023-05-29T09:39:01;101764.72;;;24.14;39.74
57948;BME280;43754;56.992;24.292;2023-05-29T09:41:49;101748.56;;;24.41;40.04
57948;BME280;43754;56.992;24.292;2023-05-29T09:44:21;101760.50;;;24.35;40.45
57948;BME280;43754;56.992;24.292;2023-05-29T09:46:57;101749.22;;;24.48;39.88
57948;BME280;43754;56.992;24.292;2023-05-29T09:49:31;101754.59;;;24.43;37.50
57948;BME280;43754;56.992;24.292;2023-05-29T09:52:04;101749.56;;;23.67;39.05
57948;BME280;43754;56.992;24.292;2023-05-29T09:54:37;101753.84;;;23.51;38.39
57948;BME280;43754;56.992;24.292;2023-05-29T09:57:11;101755.19;;;23.49;38.99
57948;BME280;43754;56.992;24.292;2023-05-29T09:59:44;101762.66;;;23.30;39.33
57948;BME280;43754;56.992;24.292;2023-05-29T10:02:18;101756.72;;;23.96;38.66
57948;BME280;43754;56.992;24.292;2023-05-29T10:04:51;101749.22;;;24.48;38.68
57948;BME280;43754;56.992;24.292;2023-05-29T10:07:26;101750.16;;;24.54;37.38
57948;BME280;43754;56.992;24.292;2023-05-29T10:10:01;101744.97;;;24.41;35.86
57948;BME280;43754;56.992;24.292;2023-05-29T10:12:37;101740.06;;;24.43;37.33
57948;BME280;43754;56.992;24.292;2023-05-29T10:15:12;101753.38;;;24.51;36.32
57948;BME280;43754;56.992;24.292;2023-05-29T10:17:50;101744.66;;;24.54;36.57
57948;BME280;43754;56.992;24.292;2023-05-29T10:20:24;101756.91;;;24.35;37.09
57948;BME280;43754;56.992;24.292;2023-05-29T10:23:00;101754.75;;;24.20;37.56
57948;BME280;43754;56.992;24.292;2023-05-29T10:25:33;101753.34;;;24.34;37.85
57948;BME280;43754;56.992;24.292;2023-05-29T10:28:09;101750.19;;;24.42;37.21
57948;BME280;43754;56.992;24.292;2023-05-29T10:30:46;101743.50;;;24.66;36.79
57948;BME280;43754;56.992;24.292;2023-05-29T10:33:38;101749.66;;;24.57;37.50
57948;BME280;43754;56.992;24.292;2023-05-29T10:36:13;101751.47;;;24.51;36.51
57948;BME280;43754;56.992;24.292;2023-05-29T10:38:46;101754.91;;;24.75;34.91
57948;BME280;43754;56.992;24.292;2023-05-29T10:41:29;101752.16;;;24.75;32.70
57948;BME280;43754;56.992;24.292;2023-05-29T10:44:03;101753.66;;;24.83;32.14
57948;BME280;43754;56.992;24.292;2023-05-29T10:47:05;101739.31;;;25.14;34.81
57948;BME280;43754;56.992;24.292;2023-05-29T10:49:38;101737.53;;;25.03;33.30
57948;BME280;43754;56.992;24.292;2023-05-29T10:52:10;101738.75;;;24.45;34.91
57948;BME280;43754;56.992;24.292;2023-05-29T10:54:53;101745.16;;;24.67;34.29
57948;BME280;43754;56.992;24.292;2023-05-29T10:57:28;101747.13;;;24.55;35.93
57948;BME280;43754;56.992;24.292;2023-05-29T11:00:06;101748.31;;;24.59;32.72
57948;BME280;43754;56.992;24.292;2023-05-29T11:02:45;101753.00;;;24.76;33.83
57948;BME280;43754;56.992;24.292;2023-05-29T11:05:22;101749.88;;;24.72;32.94
57948;BME280;43754;56.992;24.292;2023-05-29T11:07:57;101748.91;;;24.78;33.39
57948;BME280;43754;56.992;24.292;2023-05-29T11:10:56;101741.03;;;24.20;31.97
57948;BME280;43754;56.992;24.292;2023-05-29T11:13:33;101736.31;;;24.32;34.03
57948;BME280;43754;56.992;24.292;2023-05-29T11:16:12;101727.47;;;24.58;34.57
57948;BME280;43754;56.992;24.292;2023-05-29T11:18:47;101730.53;;;24.45;34.28
57948;BME280;43754;56.992;24.292;2023-05-29T11:21:29;101734.41;;;24.04;34.95
57948;BME280;43754;56.992;24.292;2023-05-29T11:24:03;101739.25;;;24.14;35.30
57948;BME280;43754;56.992;24.292;2023-05-29T11:26:39;101721.41;;;24.11;34.73
57948;BME280;43754;56.992;24.292;2023-05-29T11:29:11;101724.94;;;24.23;36.46
57948;BME280;43754;56.992;24.292;2023-05-29T11:31:47;101733.38;;;24.22;35.58
57948;BME280;43754;56.992;24.292;2023-05-29T11:34:22;101725.28;;;24.44;35.15
57948;BME280;43754;56.992;24.292;2023-05-29T11:36:56;101728.28;;;24.14;33.50
57948;BME280;43754;56.992;24.292;2023-05-29T11:39:29;101727.19;;;24.26;35.25
57948;BME280;43754;56.992;24.292;2023-05-29T11:42:01;101719.31;;;24.63;34.47
57948;BME280;43754;56.992;24.292;2023-05-29T11:44:33;101719.06;;;24.65;34.21
57948;BME280;43754;56.992;24.292;2023-05-29T11:47:07;101703.47;;;24.65;34.16
57948;BME280;43754;56.992;24.292;2023-05-29T11:49:39;101719.50;;;24.57;33.86
57948;BME280;43754;56.992;24.292;2023-05-29T11:52:13;101705.69;;;24.68;32.59
57948;BME280;43754;56.992;24.292;2023-05-29T11:54:49;101716.56;;;24.02;33.34
57948;BME280;43754;56.992;24.292;2023-05-29T11:57:21;101717.72;;;24.06;32.21
57948;BME280;43754;56.992;24.292;2023-05-29T11:59:54;101716.66;;;23.78;30.78
57948;BME280;43754;56.992;24.292;2023-05-29T12:02:32;101714.94;;;23.89;32.37
57948;BME280;43754;56.992;24.292;2023-05-29T12:05:05;101707.03;;;24.04;31.90
57948;BME280;43754;56.992;24.292;2023-05-29T12:07:47;101708.06;;;24.15;29.71
57948;BME280;43754;56.992;24.292;2023-05-29T12:10:20;101709.56;;;24.22;33.95
57948;BME280;43754;56.992;24.292;2023-05-29T12:12:54;101703.03;;;24.23;32.13
57948;BME280;43754;56.992;24.292;2023-05-29T12:15:26;101712.31;;;23.94;31.90
57948;BME280;43754;56.992;24.292;2023-05-29T12:18:00;101716.63;;;23.50;30.87
57948;BME280;43754;56.992;24.292;2023-05-29T12:20:34;101714.22;;;23.42;32.85
57948;BME280;43754;56.992;24.292;2023-05-29T12:23:06;101710.28;;;23.38;32.90
57948;BME280;43754;56.992;24.292;2023-05-29T12:25:39;101704.38;;;23.18;32.48
57948;BME280;43754;56.992;24.292;2023-05-29T12:28:15;101709.03;;;23.29;32.39
57948;BME280;43754;56.992;24.292;2023-05-29T12:30:58;101704.59;;;23.39;34.94
57948;BME280;43754;56.992;24.292;2023-05-29T12:33:32;101702.94;;;23.50;33.26
57948;BME280;43754;56.992;24.292;2023-05-29T12:36:06;101709.06;;;23.69;32.63
57948;BME280;43754;56.992;24.292;2023-05-29T12:38:51;101706.16;;;23.47;30.62
57948;BME280;43754;56.992;24.292;2023-05-29T12:41:24;101707.81;;;23.48;32.35
57948;BME280;43754;56.992;24.292;2023-05-29T12:44:00;101708.31;;;23.33;31.90
57948;BME280;43754;56.992;24.292;2023-05-29T12:46:36;101701.75;;;23.23;31.88
57948;BME280;43754;56.992;24.292;2023-05-29T12:49:14;101703.78;;;23.27;29.63
57948;BME280;43754;56.992;24.292;2023-05-29T12:51:47;101705.41;;;23.52;31.73
57948;BME280;43754;56.992;24.292;2023-05-29T12:54:19;101700.63;;;23.70;31.35
57948;BME280;43754;56.992;24.292;2023-05-29T12:56:51;101705.09;;;23.76;32.44
57948;BME280;43754;56.992;24.292;2023-05-29T12:59:23;101706.75;;;23.26;31.07
57948;BME280;43754;56.992;24.292;2023-05-29T13:01:55;101698.78;;;22.66;31.96
57948;BME280;43754;56.992;24.292;2023-05-29T13:04:29;101701.03;;;22.58;34.76
57948;BME280;43754;56.992;24.292;2023-05-29T13:07:01;101697.06;;;22.95;35.48
57948;BME280;43754;56.992;24.292;2023-05-29T13:09:33;101707.00;;;23.13;34.17
57948;BME280;43754;56.992;24.292;2023-05-29T13:12:06;101699.41;;;23.15;34.19
57948;BME280;43754;56.992;24.292;2023-05-29T13:14:38;101705.72;;;23.15;36.06
57948;BME280;43754;56.992;24.292;2023-05-29T13:17:10;101698.56;;;23.14;36.56